Madras, OR

2:40 AM PDT on September 23, 2014 (GMT -0700)
Bend Municipal | Change Station
CLOSE
Current Station
Airport
Location: Bend,
Elevation: 3461 ft
Nearby Weather Stations

Elev 3461 ft 44.09 °N, 121.20 °W | Updated 5 minutes ago

Partly Cloudy
Partly Cloudy
55 °F
Feels Like 55 °F
N
6
Wind Variable Wind from SSW

Today
High -- | Low -- °F
--% Chance of Precip.
Yesterday
High -- | Low -- °F
Precip. -- in
6:52 AM 6:59 PM
Waning Crescent, 1% visible
Pressure 29.99 in
Visibility 10.0 miles
Clouds Clear
Dew Point 45 °F
Humidity 67%
Rainfall 0.00 in
Snow Depth 0 in , 0 in , 0 in
UV 0 out of 12
Pollen 1.80 out of 12
Air Quality Not available.
Flu Activity Not available.
METAR KBDN 230935Z AUTO 21005KT 10SM CLR 13/07 A2999 RMK AO2

More Conditions Fewer Conditions

Pressure 29.99 in
Visibility 10.0 miles
Clouds Clear
Dew Point 45 °F
Humidity 67%
Rainfall 0.00 in
Snow Depth 0 in , 0 in , 0 in
UV 0 out of 12
Pollen 1.80 out of 12
Air Quality Not available.
Flu Activity Not available.
METAR KBDN 230935Z AUTO 21005KT 10SM CLR 13/07 A2999 RMK AO2

More Conditions Fewer Conditions

10-Day Weather Forecast

Almanac

Astronomy

Sep. 23, 2014 Rise Set
Actual Time 6:52 AM PDT 6:59 PM PDT
Civil Twilight 6:23 AM PDT 7:28 PM PDT
Nautical Twilight 5:49 AM PDT 8:03 PM PDT
Astronomical Twilight 5:14 AM PDT 8:37 PM PDT
Moon 6:21 AM PDT 6:40 PM PDT
Length of Visible Light 13h 05m
Length of Day
12h 06m
Tomorrow will be 3m 5s shorter.
Waning Crescent, 1% of the Moon is Illuminated
Today
Waning Crescent
Sep 24
New
Oct 1
First Quarter
Oct 8
Full
Oct 15
Last Quarter

Today's Extremes

State Highs State Lows

Community

WunderPhotos

Upload Photos

1,755,644 photos uploaded!

Nearby

Snow Depth

Station Depth Elevation
Salt Creek Falls 0 in 4000 ft
Mud Ridge 0 in 3800 ft
Irish Taylor 0 in 5500 ft
Blue Mountain Spring 0 in 5900 ft
Santiam Junction 0 in 3750 ft

Earthquake Activity

City Distance Mag. Time & Date
No recent earthquake activity has been reported nearby.
Minimum magnitude displayed is 2.5.

Coastal Water Temperatures

Place Temperature
No Stations Reporting

Nearby Weather Stations